Time;durP1;ratioP1;P1;durP2;ratioP2;P2;SDS_P1;SDS_P2;PMS_P1;PMS_P2;Temp;Humidity;BMP_temperature;BMP_pressure;BME280_temperature;BME280_humidity;BME280_pressure;Samples;Min_cycle;Max_cycle;Signal;HPM_P1;HPM_P2
2021/05/14 00:00:48;;;;;;;0.90;0.62;;;;;;;12.20;87.06;100047.91;1728197;83;21640;-41
2021/05/14 00:03:14;;;;;;;0.88;0.62;;;;;;;12.19;86.97;100047.09;1729548;81;21067;-41
2021/05/14 00:05:41;;;;;;;1.45;1.07;;;;;;;12.21;86.96;100061.28;1728303;83;21596;-40
2021/05/14 00:08:08;;;;;;;1.72;0.60;;;;;;;12.21;86.88;100057.73;1728339;83;21052;-40
2021/05/14 00:10:38;;;;;;;1.07;0.78;;;;;;;12.21;86.79;100049.52;1753167;80;21076;-42
2021/05/14 00:13:05;;;;;;;0.40;0.40;;;;;;;12.23;86.90;100048.66;1757596;80;21556;-40
2021/05/14 00:15:32;;;;;;;0.90;0.90;;;;;;;12.22;86.77;100049.79;1757668;80;21395;-40
2021/05/14 00:17:58;;;;;;;0.80;0.80;;;;;;;12.25;86.53;100050.55;1757798;80;21039;-40
2021/05/14 00:20:25;;;;;;;0.42;0.30;;;;;;;12.28;86.49;100052.69;1726200;81;21040;-42
2021/05/14 00:22:52;;;;;;;0.30;0.30;;;;;;;12.30;86.30;100053.20;1727227;82;21023;-40
2021/05/14 00:25:18;;;;;;;1.12;0.53;;;;;;;12.33;86.07;100040.27;1727414;82;21056;-41
2021/05/14 00:27:44;;;;;;;0.85;0.85;;;;;;;12.36;86.08;100053.35;1727362;82;21421;-40
2021/05/14 00:30:12;;;;;;;0.47;0.40;;;;;;;12.38;86.04;100042.91;1726787;81;21054;-41
2021/05/14 00:32:38;;;;;;;0.70;0.45;;;;;;;12.41;86.01;100034.64;1728148;83;21103;-42
2021/05/14 00:35:06;;;;;;;0.85;0.80;;;;;;;12.42;86.15;100027.51;1754759;81;21079;-41
2021/05/14 00:37:33;;;;;;;0.60;0.60;;;;;;;12.42;86.05;100025.33;1755639;80;21040;-41
2021/05/14 00:39:59;;;;;;;1.07;0.72;;;;;;;12.43;86.01;100033.23;1728719;82;21085;-41
2021/05/14 00:42:25;;;;;;;0.40;0.40;;;;;;;12.44;86.24;100034.06;1755083;80;21041;-40
2021/05/14 00:44:52;;;;;;;0.80;0.80;;;;;;;12.42;86.63;100034.36;1754799;81;21057;-41
2021/05/14 00:47:19;;;;;;;0.47;0.47;;;;;;;12.43;86.82;100029.68;1754942;80;21044;-41
2021/05/14 00:49:46;;;;;;;2.40;0.95;;;;;;;12.43;87.10;100026.38;1754762;81;21040;-41
2021/05/14 00:52:15;;;;;;;1.80;1.32;;;;;;;12.44;87.24;100028.02;1754663;81;21020;-40
2021/05/14 00:54:46;;;;;;;1.42;0.93;;;;;;;12.40;87.70;100031.09;1754588;81;21043;-40
2021/05/14 00:57:15;;;;;;;0.82;0.72;;;;;;;12.34;88.11;100021.89;1756510;80;21456;-41
2021/05/14 00:59:40;;;;;;;1.10;0.75;;;;;;;12.30;88.39;100023.63;1730882;82;20899;-41
2021/05/14 01:02:07;;;;;;;0.50;0.50;;;;;;;12.28;88.39;100017.63;1754276;81;21083;-41
2021/05/14 01:04:33;;;;;;;1.10;0.70;;;;;;;12.27;88.11;100019.56;1754408;81;21032;-40
2021/05/14 01:07:01;;;;;;;0.62;0.62;;;;;;;12.26;88.00;100022.03;1744084;81;21167;-41
2021/05/14 01:09:27;;;;;;;1.02;1.00;;;;;;;12.25;87.78;100022.59;1730705;82;21591;-41
2021/05/14 01:11:54;;;;;;;0.98;0.60;;;;;;;12.29;87.69;100020.62;1719293;83;21085;-41
2021/05/14 01:14:20;;;;;;;0.85;0.85;;;;;;;12.31;87.64;100023.31;1690559;82;21087;-40
2021/05/14 01:16:47;;;;;;;0.88;0.88;;;;;;;12.34;87.62;100021.36;1747589;82;20944;-40
2021/05/14 01:19:14;;;;;;;0.95;0.85;;;;;;;12.35;87.51;100018.86;1722675;83;21732;-40
2021/05/14 01:21:41;;;;;;;0.70;0.37;;;;;;;12.37;87.40;100019.94;1722631;83;21072;-40
2021/05/14 01:24:08;;;;;;;4.15;0.85;;;;;;;12.36;87.28;100015.56;1722488;81;21032;-41
2021/05/14 01:26:35;;;;;;;1.02;0.57;;;;;;;12.38;87.16;100019.63;1747867;80;21609;-41
2021/05/14 01:29:04;;;;;;;1.10;0.75;;;;;;;12.39;86.99;100021.27;1754121;81;21025;-39
2021/05/14 01:31:30;;;;;;;1.07;1.02;;;;;;;12.39;87.16;100013.05;1754482;81;21927;-40
2021/05/14 01:33:57;;;;;;;0.55;0.55;;;;;;;12.37;87.35;100015.27;1762651;80;21503;-40
2021/05/14 01:36:24;;;;;;;0.62;0.30;;;;;;;12.37;87.56;100018.58;1719334;83;21531;-40
2021/05/14 01:38:50;;;;;;;2.10;1.15;;;;;;;12.34;87.69;100015.88;1719225;83;21058;-40
2021/05/14 01:41:16;;;;;;;0.60;0.55;;;;;;;12.33;87.84;100014.23;1719289;83;21026;-40
2021/05/14 01:43:43;;;;;;;1.40;0.98;;;;;;;12.32;87.99;100011.82;1748687;82;21047;-41
2021/05/14 01:46:09;;;;;;;1.52;1.32;;;;;;;12.31;88.11;100009.61;1752762;81;21624;-41
2021/05/14 01:48:36;;;;;;;0.30;0.30;;;;;;;12.29;88.18;100005.55;1749170;82;21047;-42
2021/05/14 01:51:16;;;;;;;0.42;0.42;;;;;;;12.25;88.16;100005.35;1745311;81;21091;-41
2021/05/14 01:53:43;;;;;;;1.27;0.60;;;;;;;12.21;88.29;100002.39;1717266;83;21073;-41
2021/05/14 01:56:09;;;;;;;0.88;0.80;;;;;;;12.18;88.84;99998.89;1749041;82;21051;-41
2021/05/14 01:58:36;;;;;;;1.17;0.82;;;;;;;12.15;89.06;100000.87;1751581;81;21039;-41
2021/05/14 02:01:03;;;;;;;0.50;0.50;;;;;;;12.14;89.17;100001.16;1772689;80;20996;-41
2021/05/14 02:03:29;;;;;;;0.88;0.53;;;;;;;12.11;89.24;99998.46;1785984;80;21055;-41
2021/05/14 02:05:56;;;;;;;0.68;0.68;;;;;;;12.10;89.27;99995.48;1785890;80;21035;-41
2021/05/14 02:08:23;;;;;;;0.30;0.30;;;;;;;12.08;89.21;99992.78;1721374;83;21133;-41
2021/05/14 02:10:49;;;;;;;0.45;0.45;;;;;;;12.03;89.25;99989.01;1750017;81;21052;-41
2021/05/14 02:13:16;;;;;;;0.90;0.88;;;;;;;11.99;89.49;99994.85;1758176;81;21023;-42
2021/05/14 02:15:43;;;;;;;0.88;0.88;;;;;;;11.95;89.63;99993.81;1754627;81;21113;-41
2021/05/14 02:18:10;;;;;;;0.50;0.50;;;;;;;11.89;89.87;99984.05;1754575;81;21044;-41
2021/05/14 02:20:36;;;;;;;0.30;0.30;;;;;;;11.88;90.09;99991.20;1736435;82;21031;-40
2021/05/14 02:23:03;;;;;;;1.07;0.85;;;;;;;11.88;90.44;99993.95;1736251;81;21076;-41
2021/05/14 02:25:29;;;;;;;1.17;0.62;;;;;;;11.88;90.62;99986.54;1736193;82;21032;-41
2021/05/14 02:27:56;;;;;;;1.00;0.85;;;;;;;11.92;90.88;99984.00;1754496;80;21016;-41
2021/05/14 02:30:22;;;;;;;1.75;0.93;;;;;;;11.95;90.96;99977.95;1728842;81;21521;-41
2021/05/14 02:32:50;;;;;;;0.37;0.37;;;;;;;11.97;90.97;99977.91;1727864;83;21061;-41
2021/05/14 02:35:17;;;;;;;1.35;1.00;;;;;;;12.00;90.96;99978.66;1727811;83;21055;-42
2021/05/14 02:37:43;;;;;;;0.88;0.85;;;;;;;12.01;90.86;99969.33;1756353;81;21749;-42
2021/05/14 02:40:10;;;;;;;0.57;0.57;;;;;;;12.01;90.78;99965.22;1758448;80;20996;-42
2021/05/14 02:42:37;;;;;;;0.40;0.40;;;;;;;12.02;90.73;99964.69;1757389;81;21040;-41
2021/05/14 02:45:06;;;;;;;3.60;1.25;;;;;;;12.02;90.68;99965.49;1757299;80;21604;-41
2021/05/14 02:47:32;;;;;;;1.00;0.88;;;;;;;12.03;90.60;99959.45;1754974;80;21071;-41
2021/05/14 02:49:59;;;;;;;1.27;0.78;;;;;;;12.04;90.53;99959.16;1754665;81;21015;-42
2021/05/14 02:52:25;;;;;;;0.50;0.50;;;;;;;12.09;90.46;99961.53;1754967;81;21058;-41
2021/05/14 02:54:52;;;;;;;1.12;1.00;;;;;;;12.13;90.43;99948.88;1739066;81;21344;-40
2021/05/14 02:57:21;;;;;;;0.45;0.45;;;;;;;12.19;90.38;99954.50;1727432;82;21004;-43
2021/05/14 02:59:47;;;;;;;0.62;0.62;;;;;;;12.24;90.38;99950.33;1754821;80;21479;-41
2021/05/14 03:02:14;;;;;;;0.50;0.50;;;;;;;12.32;90.31;99941.39;1744177;81;21036;-41
2021/05/14 03:04:40;;;;;;;0.90;0.75;;;;;;;12.40;90.34;99940.68;1730723;81;21048;-40
2021/05/14 03:07:07;;;;;;;0.65;0.65;;;;;;;12.51;90.38;99939.10;1730676;82;21557;-41
2021/05/14 03:09:35;;;;;;;0.33;0.33;;;;;;;12.62;90.34;99939.16;1730702;82;21015;-40
2021/05/14 03:12:01;;;;;;;1.27;1.20;;;;;;;12.76;90.23;99946.83;1730766;82;21162;-39
2021/05/14 03:14:28;;;;;;;1.27;0.80;;;;;;;12.90;89.92;99949.53;1752615;81;21031;-40
2021/05/14 03:16:56;;;;;;;1.57;0.85;;;;;;;13.03;89.72;99949.25;1760655;81;21035;-42
2021/05/14 03:19:23;;;;;;;0.57;0.45;;;;;;;13.14;89.33;99954.78;1727266;81;21024;-41
2021/05/14 03:21:49;;;;;;;2.08;0.90;;;;;;;13.21;88.76;99945.57;1748487;81;21051;-41
2021/05/14 03:24:16;;;;;;;0.95;0.65;;;;;;;13.25;88.48;99946.58;1722323;83;21657;-40
2021/05/14 03:26:42;;;;;;;0.82;0.53;;;;;;;13.30;88.44;99946.50;1777211;80;21517;-42
2021/05/14 03:29:08;;;;;;;1.20;0.82;;;;;;;13.39;88.46;99940.26;1779889;80;21044;-41
2021/05/14 03:31:35;;;;;;;3.45;0.75;;;;;;;13.51;88.45;99935.03;1718368;82;21032;-41
2021/05/14 03:34:01;;;;;;;2.08;0.75;;;;;;;13.65;88.24;99941.28;1746029;81;21675;-41
2021/05/14 03:36:28;;;;;;;0.65;0.65;;;;;;;13.84;88.08;99941.63;1730500;82;21035;-41
2021/05/14 03:38:56;;;;;;;0.85;0.75;;;;;;;14.01;87.81;99938.98;1730401;82;21592;-41
2021/05/14 03:41:44;;;;;;;0.95;0.80;;;;;;;14.19;87.48;99939.34;1730594;81;21508;-40
2021/05/14 03:44:02;;;;;;;0.57;0.57;;;;;;;14.35;86.53;99937.54;1730301;81;21028;-41
2021/05/14 03:46:30;;;;;;;0.75;0.62;;;;;;;14.46;85.73;99944.36;1731038;81;21599;-42
2021/05/14 03:48:57;;;;;;;0.45;0.35;;;;;;;14.51;85.03;99940.09;1719001;83;21109;-40
2021/05/14 03:51:23;;;;;;;0.10;0.10;;;;;;;14.50;84.38;99943.98;1744131;81;21055;-42
2021/05/14 03:53:50;;;;;;;0.30;0.30;;;;;;;14.50;83.96;99942.61;1751925;80;21075;-40
2021/05/14 03:56:17;;;;;;;1.98;1.02;;;;;;;14.49;83.20;99941.00;1749419;82;21545;-43
2021/05/14 03:58:43;;;;;;;0.33;0.30;;;;;;;14.48;82.93;99938.55;1721539;82;21631;-41
2021/05/14 04:01:10;;;;;;;0.25;0.25;;;;;;;14.47;82.69;99938.32;1720699;83;21378;-41
2021/05/14 04:03:36;;;;;;;0.88;0.62;;;;;;;14.46;82.43;99925.69;1720264;83;21041;-41
2021/05/14 04:06:03;;;;;;;1.10;0.20;;;;;;;14.45;81.76;99931.75;1678611;85;21053;-40
2021/05/14 04:08:30;;;;;;;0.33;0.33;;;;;;;14.44;81.57;99934.27;1722385;82;21604;-40
2021/05/14 04:16:25;;;;;;;1.12;0.70;;;;;;;14.40;80.89;99922.28;1701667;83;21392;-41
2021/05/14 04:18:52;;;;;;;0.53;0.53;;;;;;;14.39;80.72;99920.10;1735060;82;21023;-41
2021/05/14 04:21:18;;;;;;;0.30;0.30;;;;;;;14.39;80.68;99924.22;1734861;82;21059;-42
2021/05/14 04:23:45;;;;;;;0.20;0.20;;;;;;;14.39;80.57;99922.02;1713158;82;21452;-42
2021/05/14 04:26:11;;;;;;;0.20;0.20;;;;;;;14.41;80.52;99925.27;1734173;82;21059;-41
2021/05/14 04:28:39;;;;;;;0.42;0.42;;;;;;;14.42;80.12;99918.66;1730507;82;21022;-43
2021/05/14 04:31:06;;;;;;;0.30;0.20;;;;;;;14.43;79.93;99918.89;1736777;82;21051;-42
2021/05/14 04:33:32;;;;;;;0.35;0.35;;;;;;;14.46;79.94;99907.25;1723038;82;21515;-41
2021/05/14 04:35:59;;;;;;;0.25;0.25;;;;;;;14.54;80.18;99906.52;1729212;82;21370;-40
2021/05/14 04:38:25;;;;;;;0.53;0.53;;;;;;;14.69;79.97;99903.05;1712559;82;21059;-41
2021/05/14 04:40:51;;;;;;;1.82;0.85;;;;;;;14.85;79.60;99895.98;1729907;82;21447;-41
2021/05/14 04:43:20;;;;;;;1.27;0.90;;;;;;;15.01;79.19;99893.02;1734665;82;21447;-41
2021/05/14 04:45:47;;;;;;;0.75;0.30;;;;;;;15.15;78.22;99900.29;1735341;82;21040;-40
2021/05/14 04:48:13;;;;;;;0.50;0.50;;;;;;;15.22;77.92;99898.67;1701150;82;21070;-41
2021/05/14 04:50:39;;;;;;;0.62;0.62;;;;;;;15.34;77.98;99903.53;1723887;81;21907;-40
2021/05/14 04:53:08;;;;;;;0.30;0.30;;;;;;;15.51;78.20;99901.34;1734492;82;21066;-40
2021/05/14 04:55:35;;;;;;;0.88;0.68;;;;;;;15.70;77.95;99902.37;1707596;82;21047;-40
2021/05/14 04:58:02;;;;;;;0.45;0.35;;;;;;;15.90;77.56;99900.33;1736022;82;21034;-40
2021/05/14 05:00:28;;;;;;;0.60;0.33;;;;;;;16.07;76.97;99895.88;1748190;81;20997;-41
2021/05/14 05:02:55;;;;;;;0.62;0.50;;;;;;;16.22;76.07;99899.49;1750902;81;21047;-41
2021/05/14 05:05:21;;;;;;;0.62;0.62;;;;;;;16.36;74.97;99892.36;1745819;81;21009;-41
2021/05/14 05:07:48;;;;;;;0.33;0.33;;;;;;;16.46;73.57;99898.08;1741254;81;21560;-39
2021/05/14 05:10:16;;;;;;;0.70;0.40;;;;;;;16.53;72.92;99898.36;1731170;81;21043;-41
2021/05/14 05:12:42;;;;;;;1.05;0.78;;;;;;;16.65;72.51;99894.32;1736920;81;21074;-42
2021/05/14 05:15:10;;;;;;;0.53;0.40;;;;;;;16.77;72.61;99887.52;1736683;81;21067;-41
2021/05/14 05:17:38;;;;;;;0.42;0.30;;;;;;;16.87;72.24;99884.16;1733265;81;21507;-41
2021/05/14 05:20:06;;;;;;;0.60;0.60;;;;;;;16.94;72.29;99874.78;1735572;81;21060;-41
2021/05/14 05:22:33;;;;;;;0.30;0.25;;;;;;;17.03;72.35;99876.88;1726783;83;21146;-40
2021/05/14 05:24:59;;;;;;;0.62;0.47;;;;;;;17.12;71.68;99879.01;1727547;81;21079;-41
2021/05/14 05:27:26;;;;;;;0.50;0.50;;;;;;;17.20;71.52;99880.88;1727054;83;21071;-40
2021/05/14 05:29:52;;;;;;;0.40;0.40;;;;;;;17.32;71.00;99880.72;1726882;83;21600;-41
2021/05/14 05:32:18;;;;;;;0.17;0.17;;;;;;;17.50;72.05;99878.02;1727010;82;21075;-40
2021/05/14 05:34:45;;;;;;;1.30;0.55;;;;;;;17.77;71.57;99879.95;1739725;81;21758;-41
2021/05/14 05:37:11;;;;;;;1.17;0.30;;;;;;;17.97;69.93;99883.23;1739925;81;21083;-41
2021/05/14 05:39:38;;;;;;;0.25;0.25;;;;;;;18.00;68.22;99872.90;1727346;83;21059;-41
2021/05/14 05:42:05;;;;;;;0.25;0.25;;;;;;;17.94;69.05;99867.92;1737327;81;21134;-41
2021/05/14 05:44:31;;;;;;;2.30;0.72;;;;;;;17.87;68.10;99858.80;1756956;81;21071;-41
2021/05/14 05:46:58;;;;;;;1.77;0.53;;;;;;;17.80;68.59;99861.32;1757753;81;21550;-41
2021/05/14 05:49:24;;;;;;;0.33;0.33;;;;;;;17.76;68.41;99867.29;1758151;81;21047;-40
2021/05/14 05:51:51;;;;;;;0.53;0.37;;;;;;;17.63;68.36;99856.20;1758077;81;21702;-40
2021/05/14 05:54:17;;;;;;;0.60;0.60;;;;;;;17.54;68.72;99855.48;1758190;81;21032;-41
2021/05/14 05:56:45;;;;;;;1.60;0.50;;;;;;;17.51;69.50;99852.61;1758208;81;21632;-42
2021/05/14 05:59:16;;;;;;;0.65;0.55;;;;;;;17.52;69.36;99849.48;1713744;82;21067;-41
2021/05/14 06:01:41;;;;;;;0.35;0.35;;;;;;;17.62;70.23;99846.28;1748929;82;21042;-40
2021/05/14 06:04:08;;;;;;;1.15;0.57;;;;;;;17.73;69.67;99847.23;1749369;82;21033;-41
2021/05/14 06:06:34;;;;;;;0.98;0.72;;;;;;;17.83;69.35;99853.75;1749394;82;21554;-41
2021/05/14 06:09:00;;;;;;;0.40;0.40;;;;;;;17.88;68.86;99860.44;1749460;82;21066;-41
2021/05/14 06:11:27;;;;;;;1.17;1.12;;;;;;;17.88;68.28;99854.91;1759093;80;21052;-42
2021/05/14 06:13:54;;;;;;;0.80;0.80;;;;;;;17.87;69.36;99849.72;1749181;81;21560;-41
2021/05/14 06:16:21;;;;;;;1.85;0.25;;;;;;;17.88;68.89;99843.86;1729473;82;21051;-42
2021/05/14 06:18:58;;;;;;;0.57;0.57;;;;;;;17.86;69.60;99842.01;1722563;83;21072;-42
2021/05/14 06:21:20;;;;;;;0.40;0.40;;;;;;;17.94;70.27;99848.00;1721708;83;21047;-41
2021/05/14 06:23:47;;;;;;;1.72;0.95;;;;;;;18.06;69.53;99847.21;1722865;83;21040;-41
2021/05/14 06:26:15;;;;;;;1.75;0.78;;;;;;;18.12;68.66;99838.91;1722676;83;21071;-40
2021/05/14 06:28:42;;;;;;;0.35;0.35;;;;;;;18.13;68.95;99835.01;1723038;83;21059;-42
2021/05/14 06:31:10;;;;;;;0.40;0.40;;;;;;;18.10;68.60;99848.15;1722657;83;21068;-42
2021/05/14 06:33:37;;;;;;;0.65;0.60;;;;;;;18.00;68.41;99849.41;1744773;81;21577;-41
2021/05/14 06:36:05;;;;;;;1.55;0.50;;;;;;;17.88;68.69;99852.15;1749338;82;21052;-40
2021/05/14 06:38:32;;;;;;;0.25;0.25;;;;;;;17.86;68.98;99857.20;1750102;81;21039;-42
2021/05/14 06:41:00;;;;;;;0.70;0.70;;;;;;;17.85;69.52;99847.28;1722612;83;21523;-40
2021/05/14 06:43:27;;;;;;;1.22;0.80;;;;;;;17.91;70.23;99848.69;1734037;80;21052;-40
2021/05/14 06:45:53;;;;;;;1.22;0.75;;;;;;;18.08;70.72;99839.39;1779808;80;21062;-40
2021/05/14 06:48:20;;;;;;;0.25;0.25;;;;;;;18.32;70.86;99835.80;1779955;80;21040;-41
2021/05/14 06:50:47;;;;;;;0.30;0.30;;;;;;;18.51;69.10;99826.91;1754978;80;21103;-42
2021/05/14 06:53:16;;;;;;;1.65;0.75;;;;;;;18.63;68.91;99827.48;1749023;82;21419;-42
2021/05/14 06:55:43;;;;;;;0.82;0.82;;;;;;;18.84;68.42;99812.11;1749392;82;21043;-41
2021/05/14 06:58:10;;;;;;;1.02;0.93;;;;;;;18.84;68.42;99812.11;1755104;80;21079;-42
2021/05/14 07:00:37;;;;;;;1.22;0.68;;;;;;;18.88;68.35;99819.37;1752228;81;21032;-41
2021/05/14 07:03:04;;;;;;;0.82;0.50;;;;;;;18.79;68.53;99814.57;1754700;81;21083;-40
2021/05/14 07:05:30;;;;;;;7.65;0.90;;;;;;;18.79;68.53;99814.57;1756931;81;21016;-41
2021/05/14 07:07:57;;;;;;;0.55;0.50;;;;;;;18.82;68.51;99812.48;1757769;80;21031;-41
2021/05/14 07:10:24;;;;;;;0.30;0.30;;;;;;;18.90;68.59;99818.45;1754111;81;21027;-41
2021/05/14 07:12:51;;;;;;;0.60;0.60;;;;;;;19.19;67.84;99815.67;1758087;81;21028;-42
2021/05/14 07:15:18;;;;;;;3.10;0.93;;;;;;;19.19;67.84;99815.67;1754565;81;21715;-40
2021/05/14 07:17:44;;;;;;;1.50;0.78;;;;;;;19.25;66.90;99810.92;1749603;81;21032;-42
2021/05/14 07:20:11;;;;;;;0.85;0.30;;;;;;;19.18;66.68;99814.88;1750174;81;21000;-40
2021/05/14 07:22:39;;;;;;;1.00;0.90;;;;;;;19.04;67.23;99817.23;1741147;82;21073;-41
2021/05/14 07:25:07;;;;;;;1.67;1.12;;;;;;;19.04;67.79;99815.30;1759774;81;21067;-41
2021/05/14 07:27:36;;;;;;;1.85;1.25;;;;;;;19.20;67.74;99807.03;1742753;82;21040;-41
2021/05/14 07:30:06;;;;;;;0.80;0.80;;;;;;;19.20;67.74;99807.03;1759792;81;21036;-43
2021/05/14 07:32:33;;;;;;;0.98;0.98;;;;;;;19.43;67.97;99808.64;1742854;82;21617;-40
2021/05/14 07:35:00;;;;;;;1.52;1.42;;;;;;;19.68;66.67;99808.52;1760171;81;21068;-40
2021/05/14 07:37:26;;;;;;;1.37;0.82;;;;;;;19.89;66.32;99806.89;1742939;82;21573;-42
2021/05/14 07:39:54;;;;;;;0.88;0.80;;;;;;;20.05;65.49;99814.61;1759739;81;21047;-42
2021/05/14 07:42:20;;;;;;;0.60;0.60;;;;;;;20.19;64.46;99814.96;1742325;82;21075;-41
2021/05/14 07:44:47;;;;;;;1.00;0.80;;;;;;;20.22;64.13;99813.44;1759595;81;21453;-41
2021/05/14 07:47:14;;;;;;;0.98;0.62;;;;;;;20.25;64.05;99827.17;1741521;82;21103;-41
2021/05/14 07:49:41;;;;;;;0.88;0.88;;;;;;;20.21;62.99;99831.26;1759805;81;21024;-41
2021/05/14 07:52:08;;;;;;;1.98;1.37;;;;;;;20.15;63.80;99827.13;1742375;82;21103;-42
2021/05/14 07:54:34;;;;;;;0.98;0.88;;;;;;;20.14;63.28;99830.49;1753291;81;21047;-43
2021/05/14 07:57:00;;;;;;;0.72;0.53;;;;;;;20.03;63.17;99843.31;1754910;81;21031;-40
2021/05/14 07:59:27;;;;;;;2.58;1.60;;;;;;;19.95;63.43;99842.88;1754696;81;21016;-41
2021/05/14 08:01:53;;;;;;;1.07;0.98;;;;;;;19.87;64.58;99840.52;1754675;81;21016;-41
2021/05/14 08:04:20;;;;;;;2.08;0.85;;;;;;;19.80;64.21;99841.70;1755837;80;20963;-41
2021/05/14 08:06:46;;;;;;;0.80;0.80;;;;;;;19.64;64.95;99842.26;1754807;81;21067;-42
2021/05/14 08:09:19;;;;;;;2.00;1.32;;;;;;;19.62;66.31;99835.67;1758590;81;21051;-41
2021/05/14 08:11:42;;;;;;;1.22;0.70;;;;;;;19.87;67.52;99830.81;1739427;81;21663;-42
2021/05/14 08:14:09;;;;;;;1.57;0.93;;;;;;;20.23;66.06;99830.88;1729776;81;21012;-41
2021/05/14 08:16:37;;;;;;;1.15;0.80;;;;;;;20.48;64.63;99832.88;1729728;81;21071;-43
2021/05/14 08:19:04;;;;;;;2.37;1.70;;;;;;;20.77;63.80;99839.89;1736810;82;21024;-41
2021/05/14 08:21:30;;;;;;;0.68;0.37;;;;;;;20.87;61.25;99834.35;1757214;80;21009;-43
2021/05/14 08:23:57;;;;;;;0.80;0.80;;;;;;;20.94;63.30;99838.67;1757422;81;21053;-41
2021/05/14 08:26:23;;;;;;;2.45;1.42;;;;;;;21.09;63.45;99834.22;1756545;80;21418;-41
2021/05/14 08:28:50;;;;;;;1.15;0.90;;;;;;;21.25;62.38;99828.81;1743870;81;21032;-41
2021/05/14 08:31:17;;;;;;;0.85;0.85;;;;;;;21.44;61.12;99833.59;1746379;81;21492;-42
2021/05/14 08:33:43;;;;;;;0.37;0.37;;;;;;;21.69;61.40;99833.25;1747407;81;21079;-41
2021/05/14 08:36:10;;;;;;;2.30;0.60;;;;;;;21.92;57.80;99822.12;1754620;81;21080;-42
2021/05/14 08:38:36;;;;;;;1.37;0.90;;;;;;;22.09;57.48;99823.02;1754697;81;21461;-41
2021/05/14 08:41:06;;;;;;;0.85;0.82;;;;;;;22.29;57.86;99827.93;1724447;83;21037;-41
2021/05/14 08:43:33;;;;;;;1.10;1.07;;;;;;;22.36;56.43;99822.28;1727961;83;20993;-41
2021/05/14 08:46:02;;;;;;;1.05;0.98;;;;;;;22.40;57.45;99822.52;1724680;83;21049;-41
2021/05/14 08:48:30;;;;;;;1.35;1.25;;;;;;;22.36;56.64;99815.31;1724679;83;21030;-41
2021/05/14 08:50:57;;;;;;;0.90;0.88;;;;;;;22.36;56.38;99819.49;1724551;83;21034;-40
2021/05/14 08:53:23;;;;;;;1.80;1.27;;;;;;;22.30;55.62;99823.16;1724686;83;21041;-41
2021/05/14 08:55:50;;;;;;;0.82;0.80;;;;;;;22.11;55.92;99812.91;1724617;83;21086;-42
2021/05/14 08:58:16;;;;;;;1.05;1.05;;;;;;;21.99;57.66;99821.45;1724579;83;21011;-41
2021/05/14 09:00:45;;;;;;;2.58;1.35;;;;;;;22.10;57.99;99814.07;1725511;83;21618;-41
2021/05/14 09:03:12;;;;;;;1.25;1.02;;;;;;;22.18;56.71;99813.03;1729037;81;21476;-42
2021/05/14 09:05:40;;;;;;;2.05;1.05;;;;;;;22.08;55.38;99811.68;1738952;82;21071;-42
2021/05/14 09:08:07;;;;;;;2.70;2.30;;;;;;;21.90;56.78;99811.36;1757800;81;21011;-41
2021/05/14 09:10:33;;;;;;;1.60;0.95;;;;;;;21.76;55.22;99811.14;1738999;82;21484;-42
2021/05/14 09:13:00;;;;;;;0.85;0.55;;;;;;;21.36;56.85;99808.77;1757826;81;21467;-40
2021/05/14 09:15:34;;;;;;;0.85;0.68;;;;;;;20.99;58.41;99801.72;1739047;82;21032;-40
2021/05/14 09:18:17;;;;;;;2.27;1.32;;;;;;;20.51;58.09;99798.27;1757724;81;21043;-41
2021/05/14 09:20:57;;;;;;;4.50;1.05;;;;;;;20.16;61.08;99804.59;1727669;83;20938;-40
2021/05/14 09:23:35;;;;;;;2.40;2.12;;;;;;;20.07;62.50;99815.06;1757920;81;21079;-42
2021/05/14 09:26:12;;;;;;;1.25;0.90;;;;;;;20.17;62.48;99808.97;1757898;81;21576;-41
2021/05/14 09:28:50;;;;;;;2.95;2.08;;;;;;;20.42;61.80;99805.97;1758061;81;21027;-43
2021/05/14 09:31:27;;;;;;;2.25;2.05;;;;;;;20.67;58.64;99802.39;1757964;81;21035;-41
2021/05/14 09:33:58;;;;;;;1.80;1.65;;;;;;;20.71;58.48;99802.48;1757093;81;21047;-41
2021/05/14 09:36:30;;;;;;;2.60;1.62;;;;;;;20.69;59.00;99808.98;1758108;81;21080;-41
2021/05/14 09:39:04;;;;;;;1.45;1.17;;;;;;;20.63;58.00;99810.45;1739357;81;21054;-40
2021/05/14 09:41:38;;;;;;;1.75;1.05;;;;;;;20.52;58.05;99810.96;1757848;81;21028;-41
2021/05/14 09:44:19;;;;;;;1.47;1.30;;;;;;;20.54;58.07;99800.30;1738937;81;21077;-42
2021/05/14 09:46:56;;;;;;;2.53;1.27;;;;;;;20.60;57.85;99805.84;1758011;81;21036;-41
2021/05/14 09:49:24;;;;;;;2.60;1.65;;;;;;;20.67;56.88;99798.82;1738863;82;21512;-40
2021/05/14 09:51:57;;;;;;;1.10;1.00;;;;;;;20.80;56.02;99792.78;1757916;81;21583;-40
2021/05/14 09:54:37;;;;;;;2.12;1.05;;;;;;;21.08;56.20;99800.69;1739167;82;21031;-41
2021/05/14 09:59:49;;;;;;;0.95;0.82;;;;;;;21.50;55.12;99792.39;1738814;82;21044;-41
2021/05/14 10:02:36;;;;;;;1.57;0.95;;;;;;;21.57;55.92;99795.90;1703842;82;21869;-41
2021/05/14 10:05:07;;;;;;;2.83;1.15;;;;;;;21.66;55.92;99790.88;1707220;84;21059;-41
2021/05/14 10:07:36;;;;;;;5.92;1.87;;;;;;;21.67;54.78;99786.94;1730149;82;21032;-42
2021/05/14 10:10:07;;;;;;;1.80;1.20;;;;;;;21.66;55.09;99789.48;1729888;82;20996;-41
2021/05/14 10:12:33;;;;;;;2.25;1.60;;;;;;;21.67;55.32;99786.94;1707246;84;21086;-41
2021/05/14 10:15:02;;;;;;;0.75;0.68;;;;;;;21.68;54.51;99794.09;1707424;84;21018;-41
2021/05/14 10:17:28;;;;;;;1.92;1.05;;;;;;;21.64;54.55;99794.05;1730007;82;21032;-40
2021/05/14 10:19:57;;;;;;;1.67;1.57;;;;;;;21.53;54.40;99790.85;1707227;84;21026;-40
2021/05/14 10:22:28;;;;;;;1.20;1.10;;;;;;;21.39;54.95;99783.87;1678780;84;21045;-42
2021/05/14 10:24:59;;;;;;;1.90;1.07;;;;;;;21.24;53.81;99784.72;1737876;82;21044;-40
2021/05/14 10:27:42;;;;;;;1.52;1.07;;;;;;;21.02;54.85;99782.13;1729964;82;20984;-41
2021/05/14 10:30:09;;;;;;;3.08;1.67;;;;;;;20.97;56.08;99786.59;1729877;82;21047;-42
2021/05/14 10:32:49;;;;;;;1.07;0.95;;;;;;;21.02;54.87;99789.88;1729995;82;21036;-43
2021/05/14 10:35:23;;;;;;;1.02;0.95;;;;;;;21.08;54.91;99790.96;1729975;82;21087;-41
2021/05/14 10:38:04;;;;;;;0.53;0.50;;;;;;;21.12;55.02;99785.70;1729639;82;21051;-40
2021/05/14 10:40:39;;;;;;;1.20;1.00;;;;;;;21.13;53.97;99784.52;1729905;82;21585;-41
2021/05/14 10:43:12;;;;;;;0.70;0.60;;;;;;;21.12;54.53;99791.84;1729805;82;21119;-41
2021/05/14 10:46:03;;;;;;;0.95;0.93;;;;;;;21.19;55.94;99794.73;1729775;82;21048;-43
2021/05/14 10:48:30;;;;;;;1.32;1.12;;;;;;;21.26;55.58;99790.72;1714957;82;21084;-41
2021/05/14 10:50:59;;;;;;;1.30;1.20;;;;;;;21.38;54.87;99781.42;1737587;82;20996;-41
2021/05/14 10:53:37;;;;;;;1.02;1.02;;;;;;;21.53;54.63;99779.73;1706775;84;21082;-42
2021/05/14 10:56:15;;;;;;;1.22;1.05;;;;;;;21.65;54.87;99782.33;1707155;84;21062;-42
2021/05/14 10:59:05;;;;;;;1.10;0.85;;;;;;;21.83;53.09;99787.60;1729874;82;21561;-41
2021/05/14 11:01:40;;;;;;;0.68;0.68;;;;;;;22.02;53.43;99787.33;1681241;83;21083;-41
2021/05/14 11:04:19;;;;;;;0.45;0.42;;;;;;;22.12;53.72;99785.30;1707271;84;21043;-41
2021/05/14 11:06:48;;;;;;;1.82;1.30;;;;;;;22.11;53.42;99788.67;1706910;84;21041;-42
2021/05/14 11:09:16;;;;;;;1.00;1.00;;;;;;;22.03;53.99;99794.48;1706925;84;21083;-41
2021/05/14 11:12:09;;;;;;;2.12;1.47;;;;;;;21.95;53.85;99792.77;1706751;84;21683;-41
2021/05/14 11:14:47;;;;;;;;;;;;;;;21.93;54.32;99790.34;1709565;84;21032;-41
2021/05/14 11:17:16;;;;;;;2.85;2.15;;;;;;;22.01;53.89;99782.35;1706826;84;20236;-42
2021/05/14 11:19:51;;;;;;;0.90;0.90;;;;;;;22.25;53.84;99778.95;1707466;83;21031;-41
2021/05/14 11:22:36;;;;;;;2.12;1.50;;;;;;;22.48;52.11;99772.75;1707191;84;21070;-41
2021/05/14 11:25:14;;;;;;;1.45;1.00;;;;;;;22.59;51.23;99777.06;1680600;84;21047;-41
2021/05/14 11:27:42;;;;;;;0.98;0.93;;;;;;;22.65;49.53;99779.75;1701738;84;21074;-41
2021/05/14 11:30:13;;;;;;;1.35;0.75;;;;;;;22.61;49.54;99770.53;1707043;84;21032;-40
2021/05/14 11:32:44;;;;;;;1.35;1.10;;;;;;;22.57;49.88;99773.84;1707055;84;20992;-41
2021/05/14 11:35:20;;;;;;;;;;;;;;;22.61;50.09;99777.49;1712365;82;21586;-41
2021/05/14 11:38:01;;;;;;;1.55;1.40;;;;;;;22.58;49.93;99779.64;1727357;82;20259;-41
2021/05/14 11:40:35;;;;;;;1.32;0.60;;;;;;;22.59;50.76;99774.28;1722376;82;21656;-42
2021/05/14 11:43:14;;;;;;;0.62;0.62;;;;;;;22.56;49.83;99774.24;1677357;85;21681;-41
2021/05/14 11:45:43;;;;;;;1.98;1.25;;;;;;;22.54;49.48;99771.83;1706139;82;21054;-41